Time;durP1;ratioP1;P1;durP2;ratioP2;P2;SDS_P1;SDS_P2;PMS_P1;PMS_P2;Temp;Humidity;BMP_temperature;BMP_pressure;BME280_temperature;BME280_humidity;BME280_pressure;Samples;Min_cycle;Max_cycle;Signal;HPM_P1;HPM_P2
2022/05/05 00:01:34;;;;;;;19.52;9.80;;;;;;;16.04;43.61;101848.69;5118175;27;20417;-61
2022/05/05 00:04:01;;;;;;;21.13;10.10;;;;;;;16.01;43.26;101848.94;5136031;27;20077;-61
2022/05/05 00:06:28;;;;;;;18.88;9.73;;;;;;;15.96;43.50;101859.28;5118411;27;20054;-61
2022/05/05 00:08:55;;;;;;;17.83;9.65;;;;;;;15.87;43.79;101848.16;5135974;27;20042;-62
2022/05/05 00:14:28;;;;;;;22.17;9.27;;;;;;;15.81;44.02;101851.34;5132326;27;20489;-62
2022/05/05 00:16:57;;;;;;;19.05;9.85;;;;;;;15.80;43.95;101856.88;5135984;27;20035;-62
2022/05/05 00:19:25;;;;;;;29.63;10.60;;;;;;;15.80;43.92;101852.34;5136243;27;20096;-62
2022/05/05 00:21:56;;;;;;;19.15;8.88;;;;;;;15.76;44.07;101849.97;5134345;27;20041;-62
2022/05/05 00:24:23;;;;;;;19.02;9.43;;;;;;;15.73;44.12;101851.09;5130493;27;20043;-63
2022/05/05 00:26:49;;;;;;;21.70;9.73;;;;;;;15.72;44.28;101849.34;5116857;27;20397;-62
2022/05/05 00:29:16;;;;;;;20.63;10.70;;;;;;;15.71;44.28;101844.91;5117513;27;20049;-61
2022/05/05 00:31:44;;;;;;;16.90;10.02;;;;;;;15.72;44.70;101843.06;5100626;27;20055;-62
2022/05/05 00:34:11;;;;;;;19.33;9.77;;;;;;;15.71;44.35;101847.63;5133224;27;20034;-62
2022/05/05 00:36:37;;;;;;;17.42;9.82;;;;;;;15.71;44.46;101850.34;5135864;27;20146;-62
2022/05/05 00:39:06;;;;;;;20.95;9.98;;;;;;;15.70;44.49;101853.16;5135827;27;20088;-62
2022/05/05 00:41:37;;;;;;;23.25;10.27;;;;;;;15.67;44.86;101851.56;5135623;27;20507;-61
2022/05/05 00:44:05;;;;;;;17.30;9.80;;;;;;;15.66;44.82;101855.25;5135649;27;20043;-62
2022/05/05 00:46:33;;;;;;;24.63;10.82;;;;;;;15.64;44.92;101846.38;5135100;27;20039;-62
2022/05/05 00:49:00;;;;;;;17.90;9.98;;;;;;;15.63;44.99;101844.66;5135640;27;20045;-62
2022/05/05 00:51:27;;;;;;;19.63;9.90;;;;;;;15.67;44.95;101842.56;5134520;27;20400;-61
2022/05/05 00:53:54;;;;;;;17.05;10.77;;;;;;;15.69;44.96;101846.03;5135222;27;20035;-62
2022/05/05 00:56:22;;;;;;;19.65;10.43;;;;;;;15.69;45.05;101843.31;5135307;27;20481;-62
2022/05/05 00:58:50;;;;;;;21.42;10.48;;;;;;;15.65;45.36;101839.97;5135547;27;20035;-61
2022/05/05 01:01:18;;;;;;;17.65;9.82;;;;;;;15.62;45.15;101848.34;5135275;27;20039;-62
2022/05/05 01:03:45;;;;;;;20.88;10.73;;;;;;;15.60;45.36;101836.72;5135542;27;20077;-61
2022/05/05 01:06:14;;;;;;;19.40;11.02;;;;;;;15.57;45.33;101840.53;5135738;27;20047;-62
2022/05/05 01:08:41;;;;;;;19.98;10.73;;;;;;;15.57;45.62;101840.53;5135141;27;20045;-61
2022/05/05 01:11:09;;;;;;;21.55;11.57;;;;;;;15.57;45.71;101843.22;5135005;27;20413;-60
2022/05/05 01:13:40;;;;;;;17.33;10.32;;;;;;;15.55;45.57;101841.59;5134931;27;20493;-63
2022/05/05 01:16:08;;;;;;;18.80;10.70;;;;;;;15.51;45.74;101842.81;5135113;27;20047;-61
2022/05/05 01:18:35;;;;;;;19.88;10.98;;;;;;;15.46;45.62;101835.03;5135041;27;20042;-62
2022/05/05 01:21:01;;;;;;;21.88;11.43;;;;;;;15.44;45.61;101838.84;5135045;27;20039;-62
2022/05/05 01:23:29;;;;;;;17.42;10.38;;;;;;;15.41;45.81;101836.38;5134683;27;20572;-62
2022/05/05 01:28:45;;;;;;;19.95;11.93;;;;;;;15.38;45.76;101833.88;5134959;27;20046;-62
2022/05/05 01:31:12;;;;;;;17.08;11.15;;;;;;;15.36;45.89;101833.13;5134706;27;20511;-62
2022/05/05 01:33:39;;;;;;;23.60;11.73;;;;;;;15.33;45.83;101841.50;5132758;27;20055;-62
2022/05/05 01:36:07;;;;;;;17.73;10.43;;;;;;;15.29;46.13;101840.00;5134583;27;20035;-62
2022/05/05 01:38:36;;;;;;;21.10;12.32;;;;;;;15.29;46.21;101840.00;5133525;27;20051;-61
2022/05/05 01:41:04;;;;;;;23.33;10.90;;;;;;;15.31;45.86;101843.44;5135078;27;20043;-61
2022/05/05 01:43:31;;;;;;;16.80;11.30;;;;;;;15.35;46.34;101848.50;5134460;27;20039;-61
2022/05/05 01:45:57;;;;;;;20.90;10.70;;;;;;;15.37;46.32;101843.84;5134611;27;20038;-61
2022/05/05 01:48:24;;;;;;;18.88;11.32;;;;;;;15.40;46.34;101850.88;5134786;27;20138;-61
2022/05/05 01:50:50;;;;;;;23.55;11.20;;;;;;;15.42;46.64;101852.50;5134521;27;20039;-60
2022/05/05 01:53:17;;;;;;;21.42;11.35;;;;;;;15.42;46.60;101852.50;5134128;27;20435;-61
2022/05/05 01:55:43;;;;;;;18.25;11.50;;;;;;;15.43;46.66;101845.22;5134426;27;20081;-62
2022/05/05 01:58:10;;;;;;;17.58;10.55;;;;;;;15.43;46.41;101847.94;5133685;27;20035;-62
2022/05/05 02:00:37;;;;;;;21.83;10.88;;;;;;;15.40;46.41;101843.63;5132334;27;20138;-62
2022/05/05 02:03:12;;;;;;;19.98;10.70;;;;;;;15.39;46.65;101847.31;5134558;27;20100;-61
2022/05/05 02:05:43;;;;;;;22.08;11.52;;;;;;;15.38;46.69;101855.53;5134183;27;20047;-61
2022/05/05 02:08:11;;;;;;;23.95;11.07;;;;;;;15.37;46.62;101849.25;5134413;27;20495;-61
2022/05/05 02:10:38;;;;;;;22.10;10.95;;;;;;;15.34;46.68;101848.63;5132715;28;20408;-62
2022/05/05 02:13:06;;;;;;;19.67;10.65;;;;;;;15.33;46.68;101855.03;5134014;27;20043;-62
2022/05/05 02:15:34;;;;;;;20.35;11.07;;;;;;;15.31;46.91;101851.56;5134449;27;20442;-61
2022/05/05 02:18:08;;;;;;;20.25;11.15;;;;;;;15.31;46.84;101860.56;5133298;27;20043;-62
2022/05/05 02:20:37;;;;;;;19.90;11.25;;;;;;;15.33;46.74;101855.88;5134501;27;20500;-61
2022/05/05 02:23:05;;;;;;;18.98;10.85;;;;;;;15.32;47.29;101854.16;5134035;27;20043;-61
2022/05/05 02:25:32;;;;;;;21.27;10.98;;;;;;;15.29;47.10;101851.69;5134088;28;20054;-63
2022/05/05 02:27:58;;;;;;;19.42;10.85;;;;;;;15.24;46.92;101854.75;5133469;28;20043;-62
2022/05/05 02:30:26;;;;;;;20.92;11.57;;;;;;;15.22;47.10;101856.69;5134056;27;20404;-61
2022/05/05 02:32:52;;;;;;;18.33;11.73;;;;;;;15.21;46.97;101865.78;5134035;27;20036;-62
2022/05/05 02:35:19;;;;;;;20.15;11.50;;;;;;;15.19;47.12;101861.47;5133153;27;20055;-62
2022/05/05 02:40:32;;;;;;;19.52;11.18;;;;;;;15.14;47.10;101861.81;5113564;28;20042;-62
2022/05/05 02:42:59;;;;;;;21.27;11.25;;;;;;;15.13;47.16;101864.63;5113433;28;20047;-62
2022/05/05 02:45:27;;;;;;;23.70;12.05;;;;;;;15.12;47.13;101860.19;5113514;28;20398;-62
2022/05/05 02:47:53;;;;;;;19.95;11.23;;;;;;;15.09;47.10;101861.28;5113469;28;20080;-61
2022/05/05 02:50:20;;;;;;;20.55;11.48;;;;;;;15.07;47.49;101859.69;5113362;28;20046;-61
2022/05/05 02:52:47;;;;;;;18.52;10.60;;;;;;;15.03;47.20;101860.88;5113386;28;20039;-60
2022/05/05 02:55:14;;;;;;;18.83;11.63;;;;;;;15.00;47.47;101858.41;5113141;28;20048;-61
2022/05/05 02:57:40;;;;;;;19.35;11.27;;;;;;;14.98;47.35;101863.91;5113583;28;20042;-61
2022/05/05 03:00:12;;;;;;;20.80;10.75;;;;;;;14.98;47.46;101860.34;5113331;28;20052;-61
2022/05/05 03:02:41;;;;;;;20.48;11.65;;;;;;;14.97;47.57;101861.31;5113320;28;20058;-61
2022/05/05 03:05:09;;;;;;;18.83;10.63;;;;;;;14.95;47.53;101858.75;5113111;28;20064;-61
2022/05/05 03:07:36;;;;;;;17.90;10.82;;;;;;;14.90;47.71;101852.81;5113408;28;20101;-61
2022/05/05 03:10:04;;;;;;;22.73;11.50;;;;;;;14.88;47.62;101862.88;5119834;27;20035;-61
2022/05/05 03:12:30;;;;;;;21.85;12.13;;;;;;;14.84;47.80;101864.03;5137533;27;20062;-61
2022/05/05 03:14:57;;;;;;;17.38;11.60;;;;;;;14.79;47.75;101871.63;5137417;27;20059;-61
2022/05/05 03:17:23;;;;;;;20.27;11.43;;;;;;;14.76;47.92;101875.41;5137686;27;20035;-61
2022/05/05 03:19:50;;;;;;;19.27;10.55;;;;;;;14.75;48.02;101876.38;5143074;27;20040;-61
2022/05/05 03:22:17;;;;;;;20.67;11.05;;;;;;;14.76;48.10;101871.84;5139970;27;20047;-61
2022/05/05 03:24:44;;;;;;;18.13;10.70;;;;;;;14.77;48.12;101882.53;5137973;27;20031;-61
2022/05/05 03:27:10;;;;;;;20.10;11.60;;;;;;;14.75;48.15;101879.09;5137435;27;20035;-61
2022/05/05 03:29:37;;;;;;;22.40;11.48;;;;;;;14.73;48.21;101881.03;5119135;27;20035;-61
2022/05/05 03:32:04;;;;;;;24.13;11.00;;;;;;;14.68;48.34;101879.66;5135424;27;20047;-61
2022/05/05 03:34:30;;;;;;;17.20;11.15;;;;;;;14.66;48.45;101878.88;5136430;27;20096;-61
2022/05/05 03:36:57;;;;;;;20.88;11.90;;;;;;;14.68;48.68;101885.91;5137070;27;20039;-61
2022/05/05 03:39:23;;;;;;;20.83;12.20;;;;;;;14.70;48.54;101883.09;5137397;27;20047;-61
2022/05/05 03:41:50;;;;;;;18.25;10.88;;;;;;;14.72;48.82;101886.56;5136904;27;20046;-61
2022/05/05 03:44:16;;;;;;;20.90;12.00;;;;;;;14.71;48.77;101885.69;5123279;27;20040;-61
2022/05/05 03:46:43;;;;;;;16.77;11.68;;;;;;;14.73;48.88;101885.59;5116319;28;20047;-61
2022/05/05 03:49:10;;;;;;;21.83;12.32;;;;;;;14.74;48.91;101882.78;5116098;28;20043;-62
2022/05/05 03:51:37;;;;;;;22.73;11.60;;;;;;;14.78;48.81;101883.41;5116304;28;20122;-62
2022/05/05 03:54:04;;;;;;;19.98;11.30;;;;;;;14.80;49.22;101893.13;5125833;27;20043;-61
2022/05/05 03:56:30;;;;;;;22.08;11.20;;;;;;;14.83;49.16;101894.75;5136706;27;20039;-62
2022/05/05 03:58:57;;;;;;;19.38;11.20;;;;;;;14.84;49.06;101893.78;5136697;27;20043;-61
2022/05/05 04:01:23;;;;;;;21.75;12.32;;;;;;;14.84;49.15;101893.78;5136584;27;20104;-61
2022/05/05 04:03:50;;;;;;;22.92;12.55;;;;;;;14.85;49.00;101898.22;5135301;27;20046;-61
2022/05/05 04:06:18;;;;;;;18.90;12.00;;;;;;;14.82;49.08;101896.59;5136273;27;20039;-62
2022/05/05 04:08:45;;;;;;;18.42;10.85;;;;;;;14.82;49.23;101896.59;5136461;27;20049;-61
2022/05/05 04:11:11;;;;;;;20.45;12.18;;;;;;;14.82;48.97;101898.44;5135470;27;20129;-61
2022/05/05 04:13:39;;;;;;;20.92;12.13;;;;;;;14.81;49.06;101897.56;5136232;27;20039;-62
2022/05/05 04:16:08;;;;;;;17.50;11.55;;;;;;;14.81;49.26;101904.81;5136460;27;20039;-62
2022/05/05 04:18:35;;;;;;;19.52;11.75;;;;;;;14.80;49.05;101911.22;5115671;27;20058;-61
2022/05/05 04:21:02;;;;;;;21.33;12.30;;;;;;;14.79;49.25;101915.75;5114642;28;20473;-61
2022/05/05 04:23:29;;;;;;;17.58;10.55;;;;;;;14.81;49.13;101910.22;5123819;27;20054;-61
2022/05/05 04:26:06;;;;;;;22.25;12.80;;;;;;;14.80;49.05;101913.91;5119506;27;20406;-61
2022/05/05 04:28:33;;;;;;;23.70;12.25;;;;;;;14.80;49.12;101920.19;5134974;27;20035;-61
2022/05/05 04:31:00;;;;;;;20.38;12.32;;;;;;;14.77;49.21;101920.41;5134775;27;20039;-62
2022/05/05 04:33:26;;;;;;;18.65;11.35;;;;;;;14.75;49.15;101926.91;5135724;27;20050;-62
2022/05/05 04:35:53;;;;;;;21.17;12.35;;;;;;;14.72;49.10;101921.72;5135895;27;20035;-62
2022/05/05 04:38:20;;;;;;;23.13;12.25;;;;;;;14.70;49.32;101919.13;5136136;27;20397;-62
2022/05/05 04:40:46;;;;;;;25.05;13.02;;;;;;;14.69;49.43;101919.22;5114842;28;20040;-62
2022/05/05 04:43:13;;;;;;;22.50;12.82;;;;;;;14.65;49.45;101928.53;5114845;28;20052;-62
2022/05/05 04:45:39;;;;;;;23.40;12.80;;;;;;;14.60;49.27;101927.03;5115119;28;20551;-62
2022/05/05 04:48:06;;;;;;;19.40;12.02;;;;;;;14.58;49.23;101928.97;5115137;28;20043;-62
2022/05/05 04:50:33;;;;;;;23.55;12.68;;;;;;;14.56;49.56;101925.50;5116602;27;20093;-61
2022/05/05 04:52:59;;;;;;;24.52;13.88;;;;;;;14.55;49.57;101933.72;5135206;27;20054;-62
2022/05/05 04:55:26;;;;;;;25.88;13.32;;;;;;;14.55;49.63;101936.44;5117265;27;20031;-62
2022/05/05 04:57:52;;;;;;;18.98;12.68;;;;;;;14.56;49.72;101933.63;5135429;27;20047;-62
2022/05/05 05:00:19;;;;;;;19.40;12.98;;;;;;;14.56;49.80;101933.63;5129954;27;20508;-61
2022/05/05 05:02:46;;;;;;;21.38;12.80;;;;;;;14.57;49.86;101940.75;5135029;27;20031;-62
2022/05/05 05:05:12;;;;;;;20.08;12.25;;;;;;;14.56;49.84;101943.56;5135014;27;20506;-61
2022/05/05 05:07:39;;;;;;;21.02;12.85;;;;;;;14.55;49.87;101942.69;5135274;27;20045;-62
2022/05/05 05:10:06;;;;;;;29.40;13.75;;;;;;;14.53;49.92;101941.06;5135453;27;20043;-62
2022/05/05 05:12:33;;;;;;;21.63;13.30;;;;;;;14.53;49.91;101947.34;5134892;27;20574;-61
2022/05/05 05:15:00;;;;;;;25.45;13.00;;;;;;;14.56;50.04;101943.56;5133546;27;20039;-62
2022/05/05 05:17:26;;;;;;;22.17;13.30;;;;;;;14.60;49.97;101943.25;5133889;27;20035;-60
2022/05/05 05:19:53;;;;;;;24.40;13.15;;;;;;;14.63;50.23;101948.44;5117593;27;20500;-61
2022/05/05 05:22:20;;;;;;;24.38;14.18;;;;;;;14.65;50.31;101948.31;5114680;28;20039;-61
2022/05/05 05:24:47;;;;;;;21.02;14.35;;;;;;;14.70;50.04;101953.41;5114069;28;20134;-61
2022/05/05 05:27:13;;;;;;;25.58;14.00;;;;;;;14.74;50.35;101952.22;5120406;27;20503;-62
2022/05/05 05:29:40;;;;;;;25.85;13.60;;;;;;;14.79;50.38;101955.44;5134871;27;20114;-62
2022/05/05 05:32:07;;;;;;;22.23;14.57;;;;;;;14.82;50.30;101958.81;5134408;27;20374;-61
2022/05/05 05:34:33;;;;;;;22.45;14.40;;;;;;;14.84;50.28;101954.16;5134526;27;20046;-61
2022/05/05 05:37:00;;;;;;;31.13;16.05;;;;;;;14.87;50.40;101958.50;5135010;27;20399;-61
2022/05/05 05:39:27;;;;;;;23.40;14.15;;;;;;;14.91;50.56;101954.59;5132800;27;20047;-61
2022/05/05 05:41:54;;;;;;;23.33;14.93;;;;;;;14.95;50.40;101958.81;5134849;27;20039;-61
2022/05/05 05:44:20;;;;;;;22.95;14.68;;;;;;;15.00;50.64;101959.34;5134426;27;20043;-62
2022/05/05 05:46:47;;;;;;;25.15;15.02;;;;;;;15.04;50.61;101957.28;5134806;27;20142;-62
2022/05/05 05:49:13;;;;;;;27.15;15.13;;;;;;;15.08;50.72;101959.66;5134527;27;20043;-61
2022/05/05 05:51:41;;;;;;;23.23;15.43;;;;;;;15.11;50.62;101964.00;5131290;27;20047;-63
2022/05/05 05:54:08;;;;;;;23.75;15.27;;;;;;;15.11;50.60;101969.41;5133692;27;20400;-60
2022/05/05 05:56:34;;;;;;;21.15;15.30;;;;;;;15.13;50.65;101971.03;5129214;27;20036;-61
2022/05/05 05:59:01;;;;;;;23.92;16.20;;;;;;;15.14;50.84;101967.34;5116079;27;20039;-62
2022/05/05 06:04:13;;;;;;;22.88;15.90;;;;;;;15.20;50.84;101975.00;5127879;27;20031;-61
2022/05/05 06:06:41;;;;;;;24.23;14.70;;;;;;;15.22;50.58;101973.06;5131055;27;20032;-64
2022/05/05 06:09:08;;;;;;;21.85;14.80;;;;;;;15.26;50.70;101974.56;5113979;28;20039;-62
2022/05/05 06:11:35;;;;;;;19.95;14.52;;;;;;;15.33;50.87;101979.53;5113661;28;20477;-62
2022/05/05 06:14:04;;;;;;;23.20;15.77;;;;;;;15.39;50.96;101982.66;5095258;28;20066;-63
2022/05/05 06:16:31;;;;;;;21.10;14.10;;;;;;;15.49;50.62;101977.44;5124782;28;20039;-62
2022/05/05 06:18:57;;;;;;;20.85;13.57;;;;;;;15.60;50.95;101974.81;5134154;28;20092;-63
2022/05/05 06:21:24;;;;;;;21.40;13.70;;;;;;;15.72;50.58;101983.91;5134213;27;20035;-62
2022/05/05 06:23:51;;;;;;;16.80;11.15;;;;;;;15.82;50.30;101982.25;5133803;27;20044;-62
2022/05/05 06:26:17;;;;;;;23.55;14.00;;;;;;;15.93;50.02;101979.59;5134342;27;20047;-62
2022/05/05 06:28:44;;;;;;;20.52;12.13;;;;;;;16.06;50.22;101971.38;5134214;28;20073;-62
2022/05/05 06:31:11;;;;;;;18.80;12.07;;;;;;;16.23;49.79;101984.50;5134379;27;20046;-62
2022/05/05 06:33:38;;;;;;;18.88;12.48;;;;;;;16.42;49.89;101979.41;5133683;27;20126;-63
2022/05/05 06:36:05;;;;;;;15.73;11.05;;;;;;;16.62;49.32;101988.72;5134188;27;20080;-62
2022/05/05 06:38:32;;;;;;;14.55;11.00;;;;;;;16.79;49.11;101982.00;5132767;28;20057;-61
2022/05/05 06:40:59;;;;;;;14.00;9.02;;;;;;;16.99;48.88;101985.81;5121761;28;20050;-62
2022/05/05 06:43:26;;;;;;;16.20;8.95;;;;;;;17.19;48.05;101986.97;5134477;27;20082;-62
2022/05/05 06:45:54;;;;;;;19.08;10.15;;;;;;;17.37;47.40;101989.03;5136856;27;20400;-60
2022/05/05 06:48:21;;;;;;;15.18;10.10;;;;;;;17.56;47.30;101988.41;5136558;27;20047;-61
2022/05/05 06:50:47;;;;;;;12.82;8.55;;;;;;;17.75;46.79;101985.91;5138013;27;20047;-61
2022/05/05 06:53:14;;;;;;;14.35;8.48;;;;;;;17.94;46.50;101990.69;5137704;27;20147;-61
2022/05/05 06:55:40;;;;;;;14.35;7.93;;;;;;;18.13;45.59;101990.00;5137965;27;20062;-61
2022/05/05 06:58:08;;;;;;;15.75;8.15;;;;;;;18.27;45.26;101994.28;5137841;27;20035;-62
2022/05/05 07:03:20;;;;;;;18.40;8.38;;;;;;;18.70;44.94;101991.50;5137460;27;20126;-60
2022/05/05 07:05:47;;;;;;;23.25;9.10;;;;;;;18.92;44.38;101998.63;5137667;27;20039;-61
2022/05/05 07:08:14;;;;;;;14.63;6.85;;;;;;;19.13;44.04;102001.31;5137719;27;20035;-61
2022/05/05 07:10:53;;;;;;;10.63;7.40;;;;;;;19.31;43.61;102000.53;5137607;27;20050;-61
2022/05/05 07:13:24;;;;;;;13.02;8.02;;;;;;;19.50;43.54;102002.50;5137309;27;20059;-60
2022/05/05 07:15:51;;;;;;;15.23;7.93;;;;;;;19.77;43.41;102001.88;5137480;27;20419;-62
2022/05/05 07:18:18;;;;;;;14.82;8.15;;;;;;;20.06;42.86;102007.34;5137538;27;20062;-61
2022/05/05 07:20:45;;;;;;;13.07;7.72;;;;;;;20.22;42.24;102015.88;5137469;27;20101;-61
2022/05/05 07:23:12;;;;;;;11.48;8.05;;;;;;;20.29;41.66;102014.28;5137029;27;20051;-61
2022/05/05 07:25:43;;;;;;;14.27;9.10;;;;;;;20.35;41.54;102007.38;5137153;27;20045;-61
2022/05/05 07:28:10;;;;;;;14.43;9.32;;;;;;;20.47;41.07;102016.31;5137575;27;20050;-62
2022/05/05 07:30:36;;;;;;;13.32;8.43;;;;;;;20.53;40.72;102011.13;5137316;27;20043;-61
2022/05/05 07:33:05;;;;;;;16.30;9.52;;;;;;;20.58;40.82;102013.44;5136880;27;20058;-61
2022/05/05 07:35:32;;;;;;;19.80;9.63;;;;;;;20.58;40.72;102017.03;5137210;27;20043;-61
2022/05/05 07:37:59;;;;;;;15.15;9.40;;;;;;;20.59;40.37;102018.75;5137091;27;20065;-61
2022/05/05 07:40:26;;;;;;;16.38;9.82;;;;;;;20.65;40.36;102021.91;5137005;27;20041;-61
2022/05/05 07:42:52;;;;;;;15.85;8.38;;;;;;;20.73;40.32;102022.88;5136898;27;20035;-61
2022/05/05 07:45:19;;;;;;;17.05;9.07;;;;;;;20.86;40.06;102022.59;5136669;27;20396;-61
2022/05/05 07:47:46;;;;;;;17.58;9.75;;;;;;;21.00;39.67;102024.88;5136970;27;20039;-61
2022/05/05 07:50:12;;;;;;;14.70;10.07;;;;;;;21.11;39.59;102021.94;5136764;27;20047;-61
2022/05/05 07:52:39;;;;;;;21.15;10.68;;;;;;;21.24;39.07;102030.69;5135429;27;20045;-62
2022/05/05 07:55:06;;;;;;;15.23;10.57;;;;;;;21.38;39.31;102029.34;5135054;27;20047;-61
2022/05/05 07:57:41;;;;;;;19.75;11.82;;;;;;;21.50;38.80;102030.88;5136807;27;20126;-61
2022/05/05 08:00:09;;;;;;;;;;;;;;;21.58;39.20;102032.03;5137305;27;20122;-61
2022/05/05 08:02:37;;;;;;;15.55;10.02;;;;;;;21.70;38.74;102039.00;5135381;27;19923;-61
2022/05/05 08:05:05;;;;;;;19.25;11.98;;;;;;;21.70;38.30;102031.66;5136389;27;20047;-61
2022/05/05 08:07:31;;;;;;;18.45;11.27;;;;;;;21.69;38.11;102034.56;5136708;27;20039;-60
2022/05/05 08:09:59;;;;;;;20.08;11.60;;;;;;;21.77;38.41;102040.13;5134970;27;20464;-63
2022/05/05 08:12:27;;;;;;;15.25;10.23;;;;;;;21.85;38.21;102040.22;5136558;27;20579;-63
2022/05/05 08:14:54;;;;;;;22.63;13.18;;;;;;;21.89;37.97;102047.94;5136109;27;20035;-63
2022/05/05 08:17:21;;;;;;;22.67;13.50;;;;;;;21.94;37.83;102047.50;5136318;27;20136;-63
2022/05/05 08:19:47;;;;;;;21.98;13.50;;;;;;;21.91;37.77;102046.94;5134573;27;20043;-61
2022/05/05 08:22:14;;;;;;;25.13;13.90;;;;;;;21.82;37.68;102046.84;5136250;27;20047;-63
2022/05/05 08:30:12;;;;;;;21.45;13.65;;;;;;;21.94;38.04;102047.50;5135759;27;20051;-62
2022/05/05 08:32:39;;;;;;;22.23;13.38;;;;;;;22.01;37.60;102045.00;5135963;27;20043;-62
2022/05/05 08:35:06;;;;;;;22.38;14.52;;;;;;;22.13;37.98;102052.00;5135708;27;20088;-62
2022/05/05 08:37:32;;;;;;;22.10;13.45;;;;;;;22.30;37.74;102051.19;5136058;27;20046;-61
2022/05/05 08:39:59;;;;;;;23.00;13.45;;;;;;;22.50;37.89;102055.47;5117645;27;20047;-62
2022/05/05 08:42:26;;;;;;;21.20;14.68;;;;;;;22.65;37.32;102055.78;5135724;27;20047;-62
2022/05/05 08:44:52;;;;;;;21.50;13.82;;;;;;;22.78;36.98;102061.69;5135424;27;20062;-61
2022/05/05 08:47:23;;;;;;;20.33;14.82;;;;;;;22.83;36.95;102058.50;5135866;27;20047;-61
2022/05/05 08:49:51;;;;;;;21.63;14.55;;;;;;;22.87;36.70;102061.78;5135590;27;20057;-59
2022/05/05 08:52:23;;;;;;;22.88;14.55;;;;;;;22.96;37.23;102056.22;5135434;27;20046;-61
2022/05/05 08:54:50;;;;;;;19.83;13.88;;;;;;;23.09;37.04;102053.06;5134246;27;20078;-61
2022/05/05 08:57:17;;;;;;;20.27;14.02;;;;;;;23.23;36.74;102057.94;5135768;27;20046;-62
2022/05/05 08:59:44;;;;;;;24.83;14.63;;;;;;;23.44;37.17;102063.03;5135674;27;20058;-61
2022/05/05 09:02:10;;;;;;;21.23;14.82;;;;;;;23.62;36.88;102066.59;5135376;27;20492;-63
2022/05/05 09:04:37;;;;;;;24.02;14.80;;;;;;;23.75;36.57;102066.97;5135278;27;20047;-62
2022/05/05 09:07:04;;;;;;;20.13;13.80;;;;;;;23.83;36.17;102068.91;5134900;27;20043;-61
2022/05/05 09:09:33;;;;;;;17.63;13.85;;;;;;;23.87;35.94;102063.97;5134322;27;20054;-61
2022/05/05 09:12:04;;;;;;;21.67;15.05;;;;;;;23.87;35.70;102070.31;5135185;27;20045;-61
2022/05/05 09:14:55;;;;;;;19.05;14.73;;;;;;;23.85;35.59;102066.00;5135379;27;20065;-62
2022/05/05 09:17:25;;;;;;;22.33;15.15;;;;;;;23.74;35.67;102078.13;5135160;27;20043;-62
2022/05/05 09:19:53;;;;;;;22.77;14.20;;;;;;;23.65;35.35;102074.47;5135158;27;20043;-62
2022/05/05 09:22:26;;;;;;;23.48;15.73;;;;;;;23.48;35.21;102080.88;5135056;27;20126;-62
2022/05/05 09:24:57;;;;;;;21.25;16.00;;;;;;;23.31;35.47;102076.31;5135024;27;20039;-62
2022/05/05 09:27:29;;;;;;;22.10;16.05;;;;;;;23.21;35.44;102072.84;5134941;27;20519;-62
2022/05/05 09:30:07;;;;;;;24.77;15.32;;;;;;;23.05;35.77;102076.34;5131838;27;20047;-62
2022/05/05 09:32:39;;;;;;;24.05;16.10;;;;;;;23.00;35.72;102073.19;5134872;27;20043;-62
2022/05/05 09:35:11;;;;;;;23.33;15.80;;;;;;;22.97;35.75;102081.72;5133574;27;20035;-62
2022/05/05 09:37:46;;;;;;;24.17;16.15;;;;;;;22.89;35.84;102078.94;5123662;27;20039;-60
2022/05/05 09:40:20;;;;;;;19.55;14.90;;;;;;;22.78;35.96;102075.38;5129667;27;20031;-62
2022/05/05 09:42:49;;;;;;;22.88;15.82;;;;;;;22.73;35.92;102080.47;5134790;27;20047;-62
2022/05/05 09:45:23;;;;;;;23.85;17.58;;;;;;;22.72;36.22;102086.13;5134276;27;20503;-61
2022/05/05 09:48:11;;;;;;;24.33;16.75;;;;;;;22.68;36.24;102082.84;5134842;27;20064;-61
2022/05/05 09:50:44;;;;;;;23.52;17.30;;;;;;;22.62;36.25;102086.22;5134663;27;20454;-62
2022/05/05 09:59:14;;;;;;;25.65;16.85;;;;;;;22.35;36.79;102089.88;5134628;27;20077;-61
2022/05/05 10:01:44;;;;;;;24.58;18.60;;;;;;;22.36;36.68;102093.50;5110944;27;20138;-62
2022/05/05 10:04:11;;;;;;;29.60;17.27;;;;;;;22.35;36.54;102092.63;5134193;27;20099;-61
2022/05/05 10:06:42;;;;;;;26.90;16.17;;;;;;;22.38;36.47;102091.47;5133148;27;20051;-61
2022/05/05 10:09:14;;;;;;;24.65;17.00;;;;;;;22.45;36.31;102092.56;5134423;27;20039;-62
2022/05/05 10:11:41;;;;;;;25.23;16.83;;;;;;;22.56;36.38;102088.72;5134337;27;20041;-62
2022/05/05 10:14:16;;;;;;;24.30;16.80;;;;;;;22.72;36.65;102095.19;5133953;28;20047;-63
2022/05/05 10:16:43;;;;;;;22.25;17.58;;;;;;;22.81;36.65;102088.78;5134484;27;20039;-62
2022/05/05 10:19:10;;;;;;;26.83;18.23;;;;;;;22.85;36.30;102102.19;5137028;27;20035;-61
2022/05/05 10:21:41;;;;;;;50.15;19.70;;;;;;;22.85;36.28;102096.69;5138568;27;20155;-62
2022/05/05 10:24:19;;;;;;;112.15;27.23;;;;;;;22.87;36.33;102094.66;5138145;27;20051;-62
2022/05/05 10:26:50;;;;;;;28.08;16.42;;;;;;;22.87;35.91;102091.91;5138606;27;20046;-63
2022/05/05 10:29:36;;;;;;;37.08;17.58;;;;;;;22.94;36.25;102088.38;5138328;27;20434;-62
2022/05/05 10:32:06;;;;;;;23.95;16.48;;;;;;;23.14;36.18;102080.84;5138339;27;20059;-62
2022/05/05 10:34:33;;;;;;;23.75;16.65;;;;;;;23.33;35.95;102079.78;5137923;27;20057;-62
2022/05/05 10:37:03;;;;;;;27.35;16.27;;;;;;;23.49;36.12;102081.75;5136933;27;20042;-62
2022/05/05 10:39:45;;;;;;;39.60;17.45;;;;;;;23.70;35.79;102084.97;5138249;27;20130;-62
2022/05/05 10:42:16;;;;;;;50.42;19.52;;;;;;;23.89;35.54;102081.97;5138136;27;20489;-62
2022/05/05 10:45:05;;;;;;;23.90;15.50;;;;;;;24.01;35.32;102072.41;5137919;27;20043;-62
2022/05/05 10:48:01;;;;;;;20.70;15.52;;;;;;;24.16;34.93;102074.50;5119734;27;20107;-62
2022/05/05 10:50:39;;;;;;;18.25;13.70;;;;;;;24.35;34.89;102076.97;5138097;27;20032;-62
2022/05/05 10:53:07;;;;;;;19.40;13.23;;;;;;;24.55;34.99;102080.28;5137681;27;20490;-62
2022/05/05 10:55:40;;;;;;;18.63;12.43;;;;;;;24.77;34.41;102076.00;5137933;27;20044;-62
2022/05/05 10:59:03;;;;;;;18.42;11.75;;;;;;;25.03;34.34;102073.94;5137749;27;20043;-62
2022/05/05 11:01:45;;;;;;;19.55;13.95;;;;;;;25.32;34.04;102076.16;5138008;27;20035;-62
2022/05/05 11:04:13;;;;;;;17.65;13.38;;;;;;;25.56;33.60;102072.47;5137467;27;20118;-61
2022/05/05 11:06:42;;;;;;;20.05;14.07;;;;;;;25.70;33.69;102069.00;5137692;27;20039;-62
2022/05/05 11:09:09;;;;;;;18.83;14.65;;;;;;;25.79;32.97;102081.69;5135753;27;20061;-63
2022/05/05 11:11:41;;;;;;;24.65;14.02;;;;;;;25.83;33.09;102076.69;5123606;27;20048;-63
2022/05/05 11:23:08;;;;;;;19.02;15.30;;;;;;;25.57;32.75;102083.28;5116593;28;20051;-64
2022/05/05 11:25:41;;;;;;;22.00;16.42;;;;;;;25.42;32.49;102084.19;5117374;28;20058;-62
2022/05/05 11:28:08;;;;;;;21.70;17.60;;;;;;;25.25;32.64;102075.97;5116460;28;20047;-64
2022/05/05 11:30:35;;;;;;;24.60;15.95;;;;;;;25.06;32.64;102076.34;5116885;27;20046;-63
2022/05/05 11:33:03;;;;;;;20.92;16.08;;;;;;;24.90;32.67;102081.84;5114787;28;20036;-62
2022/05/05 11:35:56;;;;;;;25.40;16.20;;;;;;;24.76;32.81;102083.38;5116342;28;20485;-62
2022/05/05 11:38:26;;;;;;;20.33;16.30;;;;;;;24.67;33.15;102085.28;5116410;28;20035;-62
2022/05/05 11:41:03;;;;;;;23.10;17.50;;;;;;;24.49;33.39;102078.19;5116480;28;20397;-62
2022/05/05 11:46:18;;;;;;;20.85;17.58;;;;;;;24.30;33.54;102082.97;5116514;28;20405;-64
2022/05/05 11:48:53;;;;;;;23.08;17.25;;;;;;;24.30;33.76;102093.09;5116270;28;20057;-61
2022/05/05 11:51:27;;;;;;;24.85;17.70;;;;;;;24.26;33.80;102091.69;5116464;28;20040;-62
2022/05/05 11:54:04;;;;;;;24.00;17.27;;;;;;;24.21;33.98;102086.69;5115722;28;20058;-61
2022/05/05 11:56:32;;;;;;;28.25;19.13;;;;;;;24.19;34.10;102086.00;5115885;28;20530;-62